createdAt,value
2022-09-18T05:03:41.879Z,10.80
2022-09-18T05:08:47.245Z,10.80
2022-09-18T05:13:52.830Z,10.70
2022-09-18T05:18:57.880Z,10.70
2022-09-18T05:24:01.518Z,10.70
2022-09-18T05:29:05.213Z,10.70
2022-09-18T05:34:10.391Z,10.70
2022-09-18T05:39:17.718Z,10.60
2022-09-18T05:44:21.733Z,10.60
2022-09-18T05:49:27.075Z,10.60
2022-09-18T05:54:32.013Z,10.60
2022-09-18T05:59:35.635Z,10.50
2022-09-18T06:04:41.186Z,10.50
2022-09-18T06:09:45.544Z,10.60
2022-09-18T06:14:49.134Z,10.60
2022-09-18T06:19:54.383Z,10.60
2022-09-18T06:24:58.032Z,10.60
2022-09-18T06:30:04.085Z,10.60
2022-09-18T06:35:10.931Z,10.70
2022-09-18T06:40:14.720Z,10.80
2022-09-18T06:45:18.992Z,10.90
2022-09-18T06:50:26.333Z,11.00
2022-09-18T06:55:29.916Z,11.10
2022-09-18T07:00:33.728Z,11.20
2022-09-18T07:05:42.444Z,11.30
2022-09-18T07:10:46.998Z,11.40
2022-09-18T07:15:50.618Z,11.60
2022-09-18T07:20:55.683Z,11.70
2022-09-18T07:26:04.779Z,11.90
2022-09-18T07:31:09.260Z,12.00
2022-09-18T07:36:14.270Z,12.20
2022-09-18T07:41:18.067Z,12.30
2022-09-18T07:46:21.819Z,12.30
2022-09-18T07:51:27.295Z,12.40
2022-09-18T07:56:30.995Z,12.50
2022-09-18T08:01:35.718Z,12.70
2022-09-18T08:06:42.318Z,12.90
2022-09-18T08:11:46.598Z,13.00
2022-09-18T08:16:52.051Z,13.20
2022-09-18T08:21:57.777Z,13.40
2022-09-18T08:27:03.580Z,13.80
2022-09-18T08:32:09.844Z,14.00
2022-09-18T08:37:15.485Z,14.30
2022-09-18T08:42:27.324Z,14.70
2022-09-18T08:47:38.662Z,15.00
2022-09-18T08:52:50.178Z,15.60
2022-09-18T08:58:00.349Z,16.20
2022-09-18T09:03:16.196Z,16.80
2022-09-18T09:08:56.848Z,17.50
2022-09-18T09:14:16.191Z,18.20
2022-09-18T09:19:31.347Z,18.90
2022-09-18T09:24:43.743Z,19.70
2022-09-18T09:30:00.891Z,20.30
2022-09-18T09:35:20.442Z,21.20
2022-09-18T09:40:44.474Z,22.00
2022-09-18T09:45:52.477Z,22.60
2022-09-18T09:51:02.423Z,23.10
2022-09-18T09:56:16.959Z,23.50
2022-09-18T10:01:26.562Z,23.80
2022-09-18T10:06:40.198Z,24.00
2022-09-18T10:11:57.124Z,24.50
2022-09-18T10:17:05.272Z,25.10
2022-09-18T10:22:13.991Z,25.30
2022-09-18T10:27:20.964Z,25.40
2022-09-18T10:32:35.314Z,25.20
2022-09-18T10:37:39.708Z,25.80
2022-09-18T10:42:46.063Z,26.00
2022-09-18T10:47:50.976Z,26.00
2022-09-18T10:52:55.045Z,25.80
2022-09-18T10:58:14.615Z,25.60
2022-09-18T11:03:26.689Z,25.70
2022-09-18T11:08:35.663Z,25.70
2022-09-18T11:13:45.915Z,25.50
2022-09-18T11:19:07.729Z,25.50
2022-09-18T11:24:23.650Z,26.20
2022-09-18T11:29:32.832Z,26.40
2022-09-18T11:34:40.019Z,26.30
2022-09-18T11:39:57.371Z,26.30
2022-09-18T11:45:21.068Z,26.10
2022-09-18T11:50:30.466Z,25.80
2022-09-18T11:55:39.222Z,26.00
2022-09-18T12:00:51.027Z,26.50
2022-09-18T12:05:59.694Z,26.90
2022-09-18T12:11:13.781Z,27.00
2022-09-18T12:16:23.748Z,27.30
2022-09-18T12:21:37.586Z,27.40
2022-09-18T12:26:55.743Z,27.20
2022-09-18T12:32:13.506Z,27.30
2022-09-18T12:37:31.540Z,27.20
2022-09-18T12:42:49.636Z,27.40
2022-09-18T12:48:15.114Z,27.60
2022-09-18T12:53:29.325Z,28.00
2022-09-18T12:59:11.592Z,28.80
2022-09-18T13:04:23.621Z,29.00
2022-09-18T13:09:32.231Z,28.60
2022-09-18T13:14:41.224Z,28.50
2022-09-18T13:19:53.271Z,28.80
2022-09-18T13:24:58.463Z,28.60
2022-09-18T13:30:15.763Z,28.40
2022-09-18T13:35:24.991Z,28.70
2022-09-18T13:40:35.874Z,28.80
2022-09-18T13:45:40.608Z,29.00
2022-09-18T13:50:54.358Z,29.20
2022-09-18T13:55:58.249Z,29.30
2022-09-18T14:01:03.149Z,29.10
2022-09-18T14:06:46.630Z,29.30
2022-09-18T14:11:50.309Z,29.50
2022-09-18T14:16:55.607Z,29.60
2022-09-18T14:22:02.838Z,29.80
2022-09-18T14:27:42.493Z,29.80
2022-09-18T14:33:04.357Z,29.80
2022-09-18T14:38:25.726Z,29.60
2022-09-18T14:43:29.245Z,29.20
2022-09-18T14:48:37.804Z,28.90
2022-09-18T14:53:45.865Z,28.50
2022-09-18T14:58:50.500Z,27.90
2022-09-18T15:03:55.651Z,27.30
2022-09-18T15:09:00.865Z,26.70
2022-09-18T15:14:20.959Z,26.30
2022-09-18T15:19:25.045Z,25.90
2022-09-18T15:24:31.313Z,25.50
2022-09-18T15:29:49.424Z,25.10
2022-09-18T15:34:54.903Z,24.60
2022-09-18T15:40:07.126Z,24.20
2022-09-18T15:45:19.559Z,23.90
2022-09-18T15:50:39.216Z,23.60
2022-09-18T15:55:57.066Z,23.40
2022-09-18T16:01:03.300Z,23.10
2022-09-18T16:06:08.620Z,23.00
2022-09-18T16:11:38.995Z,22.80
2022-09-18T16:16:42.785Z,22.70
2022-09-18T16:21:46.427Z,22.60
2022-09-18T16:26:51.356Z,22.50
2022-09-18T16:31:55.097Z,22.30
2022-09-18T16:37:01.989Z,22.80
2022-09-18T16:42:17.123Z,22.10
2022-09-18T16:47:20.733Z,21.90
2022-09-18T16:52:24.363Z,21.90
2022-09-18T16:57:30.472Z,21.80
2022-09-18T17:02:34.934Z,21.70
2022-09-18T17:07:38.326Z,21.60
2022-09-18T17:12:43.448Z,21.40
2022-09-18T17:17:46.986Z,21.30
2022-09-18T17:22:51.451Z,21.20
2022-09-18T17:27:57.956Z,21.10
2022-09-18T17:33:02.716Z,20.90
2022-09-18T17:38:06.435Z,20.80
2022-09-18T17:43:12.104Z,20.70
2022-09-18T17:48:16.141Z,20.50
2022-09-18T17:53:20.460Z,20.50
2022-09-18T17:58:25.609Z,20.40
2022-09-18T18:03:30.511Z,20.30
2022-09-18T18:08:34.924Z,20.30
2022-09-18T18:13:42.220Z,20.10
2022-09-18T18:18:45.765Z,19.90
2022-09-18T18:23:50.244Z,19.80
2022-09-18T18:28:57.860Z,19.60
2022-09-18T18:34:01.436Z,19.50
2022-09-18T18:39:09.917Z,19.40
2022-09-18T18:44:18.558Z,19.30
2022-09-18T18:49:24.938Z,19.10
2022-09-18T18:54:55.547Z,19.00
2022-09-18T19:00:20.838Z,18.90
2022-09-18T19:05:31.404Z,18.80
2022-09-18T19:10:42.264Z,18.70
2022-09-18T19:15:53.866Z,18.60
2022-09-18T19:21:10.001Z,18.40
2022-09-18T19:26:22.043Z,18.30
2022-09-18T19:31:39.759Z,18.20
2022-09-18T19:36:50.845Z,18.10
2022-09-18T19:42:05.993Z,18.00
2022-09-18T19:47:22.951Z,17.80
2022-09-18T19:52:43.780Z,17.80
2022-09-18T19:57:57.708Z,17.60
2022-09-18T20:03:16.293Z,17.60
2022-09-18T20:08:22.754Z,17.50
2022-09-18T20:13:29.643Z,17.50
2022-09-18T20:18:38.723Z,17.40
2022-09-18T20:23:44.822Z,17.30
2022-09-18T20:28:50.150Z,17.30
2022-09-18T20:34:03.053Z,17.20
2022-09-18T20:39:07.704Z,17.20
2022-09-18T20:44:11.752Z,17.20
2022-09-18T20:49:17.484Z,17.00
2022-09-18T20:54:24.434Z,16.90
2022-09-18T20:59:28.164Z,16.90
2022-09-18T21:04:33.195Z,16.80
2022-09-18T21:09:36.701Z,16.60
2022-09-18T21:14:40.394Z,16.50
2022-09-18T21:19:48.573Z,16.40
2022-09-18T21:24:53.882Z,16.40
2022-09-18T21:29:59.093Z,16.30
2022-09-18T21:35:04.267Z,16.20
2022-09-18T21:40:08.607Z,16.20
2022-09-18T21:45:20.699Z,16.10
2022-09-18T21:50:26.086Z,16.00
2022-09-18T21:55:31.287Z,15.90
2022-09-18T22:00:34.974Z,15.90
2022-09-18T22:05:39.898Z,15.70
2022-09-18T22:10:43.775Z,15.70
2022-09-18T22:15:47.288Z,15.60
2022-09-18T22:20:52.178Z,15.50
2022-09-18T22:25:58.979Z,15.50
